createdAt,value
2023-04-18T00:00:40.137Z,208.83
2023-04-18T00:01:40.184Z,211.27
2023-04-18T00:02:40.356Z,209.53
2023-04-18T00:03:40.484Z,209.54
2023-04-18T00:04:40.357Z,209.96
2023-04-18T00:05:40.315Z,211.64
2023-04-18T00:06:40.346Z,213.41
2023-04-18T00:07:40.389Z,211.01
2023-04-18T00:08:40.438Z,210.34
2023-04-18T00:09:40.497Z,211.27
2023-04-18T00:10:40.501Z,209.61
2023-04-18T00:11:40.543Z,208.45
2023-04-18T00:12:40.569Z,207.35
2023-04-18T00:13:40.621Z,207.51
2023-04-18T00:14:40.647Z,207.28
2023-04-18T00:15:40.699Z,208.75
2023-04-18T00:16:40.803Z,209.40
2023-04-18T00:17:40.808Z,209.57
2023-04-18T00:18:40.792Z,209.63
2023-04-18T00:19:40.853Z,208.34
2023-04-18T00:20:40.888Z,208.01
2023-04-18T00:21:40.933Z,207.61
2023-04-18T00:22:40.957Z,208.20
2023-04-18T00:23:41.012Z,208.14
2023-04-18T00:24:41.037Z,207.47
2023-04-18T00:25:41.076Z,206.29
2023-04-18T00:26:41.139Z,207.77
2023-04-18T00:27:41.147Z,205.98
2023-04-18T00:28:41.199Z,206.09
2023-04-18T00:29:41.234Z,208.02
2023-04-18T00:30:41.289Z,207.60
2023-04-18T00:31:41.303Z,209.02
2023-04-18T00:32:41.395Z,209.35
2023-04-18T00:33:41.393Z,208.09
2023-04-18T00:34:41.429Z,210.05
2023-04-18T00:35:41.546Z,208.36
2023-04-18T00:36:41.501Z,209.45
2023-04-18T00:37:41.499Z,208.10
2023-04-18T00:38:41.523Z,209.30
2023-04-18T00:39:41.593Z,208.40
2023-04-18T00:40:41.612Z,209.07
2023-04-18T00:41:41.648Z,208.80
2023-04-18T00:42:41.674Z,210.47
2023-04-18T00:43:41.717Z,210.17
2023-04-18T00:44:41.754Z,209.61
2023-04-18T00:45:41.799Z,209.60
2023-04-18T00:46:41.837Z,209.37
2023-04-18T00:47:41.901Z,209.84
2023-04-18T00:48:41.881Z,211.47
2023-04-18T00:49:41.952Z,211.19
2023-04-18T00:50:41.969Z,212.08
2023-04-18T00:51:42.075Z,212.81
2023-04-18T00:52:42.071Z,214.36
2023-04-18T00:53:42.093Z,210.80
2023-04-18T00:54:42.155Z,209.60
2023-04-18T00:55:42.187Z,210.80
2023-04-18T00:56:42.200Z,209.89
2023-04-18T00:57:42.270Z,209.90
2023-04-18T00:58:42.293Z,209.72
2023-04-18T00:59:42.344Z,210.23
2023-04-18T01:00:42.351Z,211.36
2023-04-18T01:01:42.414Z,211.28
2023-04-18T01:02:42.573Z,210.40
2023-04-18T01:03:42.673Z,211.40
2023-04-18T01:04:42.740Z,210.67
2023-04-18T01:05:42.552Z,211.69
2023-04-18T01:06:42.580Z,210.46
2023-04-18T01:07:42.612Z,211.14
2023-04-18T01:08:42.653Z,209.52
2023-04-18T01:09:42.692Z,210.09
2023-04-18T01:10:42.736Z,211.47
2023-04-18T01:11:42.765Z,211.38
2023-04-18T01:12:42.807Z,212.60
2023-04-18T01:13:42.834Z,209.74
2023-04-18T01:14:42.886Z,212.76
2023-04-18T01:15:42.952Z,212.77
2023-04-18T01:16:42.966Z,212.81
2023-04-18T01:17:43.030Z,213.58
2023-04-18T01:18:43.042Z,212.74
2023-04-18T01:19:43.066Z,211.45
2023-04-18T01:20:43.124Z,209.82
2023-04-18T01:21:43.138Z,209.22
2023-04-18T01:22:43.200Z,212.15
2023-04-18T01:23:43.214Z,210.70
2023-04-18T01:24:43.264Z,211.89
2023-04-18T01:25:43.294Z,210.94
2023-04-18T01:26:43.322Z,209.87
2023-04-18T01:27:43.382Z,210.41
2023-04-18T01:28:43.394Z,211.43
2023-04-18T01:29:43.453Z,210.70
2023-04-18T01:30:43.493Z,209.91
2023-04-18T01:31:43.619Z,211.70
2023-04-18T01:32:43.602Z,210.69
2023-04-18T01:33:43.615Z,210.47
2023-04-18T01:34:43.656Z,210.74
2023-04-18T01:35:43.704Z,211.13
2023-04-18T01:36:43.740Z,211.38
2023-04-18T01:37:43.757Z,211.15
2023-04-18T01:38:43.789Z,211.29
2023-04-18T01:39:43.852Z,211.16
2023-04-18T01:40:43.873Z,210.86
2023-04-18T01:41:43.910Z,212.08
2023-04-18T01:42:43.968Z,210.54
2023-04-18T01:43:43.992Z,210.42
2023-04-18T01:44:44.041Z,210.19
2023-04-18T01:45:44.078Z,209.21
2023-04-18T01:46:44.125Z,208.80
2023-04-18T01:47:44.225Z,207.77
2023-04-18T01:48:44.188Z,208.52
2023-04-18T01:49:44.234Z,208.73
2023-04-18T01:50:44.264Z,209.25
2023-04-18T01:51:44.323Z,209.59
2023-04-18T01:52:44.368Z,208.23
2023-04-18T01:53:44.403Z,208.97
2023-04-18T01:54:44.430Z,209.76
2023-04-18T01:55:44.579Z,208.67
2023-04-18T01:56:44.513Z,207.60
2023-04-18T01:57:44.560Z,208.73
2023-04-18T01:58:44.608Z,208.35
2023-04-18T01:59:44.656Z,208.16
2023-04-18T02:00:44.721Z,206.65
2023-04-18T02:01:44.753Z,208.83
2023-04-18T02:02:44.833Z,208.29
2023-04-18T02:03:44.928Z,206.66
2023-04-18T02:04:44.824Z,206.86
2023-04-18T02:05:44.876Z,208.11
2023-04-18T02:06:44.908Z,209.36
2023-04-18T02:07:44.943Z,209.40
2023-04-18T02:08:45.011Z,208.36
2023-04-18T02:09:45.008Z,207.51
2023-04-18T02:10:45.086Z,207.93
2023-04-18T02:11:45.088Z,209.49
2023-04-18T02:12:45.111Z,208.68
2023-04-18T02:13:45.165Z,207.81
2023-04-18T02:14:45.204Z,205.39
2023-04-18T02:15:45.237Z,206.62
2023-04-18T02:16:45.380Z,205.44
2023-04-18T02:17:45.359Z,207.01
2023-04-18T02:18:45.401Z,205.61
2023-04-18T02:19:45.394Z,208.75
2023-04-18T02:20:45.442Z,207.21
2023-04-18T02:21:45.482Z,205.61
2023-04-18T02:22:45.527Z,206.84
2023-04-18T02:23:45.540Z,207.85
2023-04-18T02:24:45.578Z,205.78
2023-04-18T02:25:45.638Z,206.64
2023-04-18T02:26:45.675Z,207.33
2023-04-18T02:27:45.707Z,207.39
2023-04-18T02:28:45.718Z,204.94
2023-04-18T02:29:45.760Z,205.84
2023-04-18T02:30:45.794Z,207.77
2023-04-18T02:31:45.936Z,209.61
2023-04-18T02:32:45.916Z,208.23
2023-04-18T02:33:45.919Z,206.71
2023-04-18T02:34:45.985Z,208.99
2023-04-18T02:35:46.014Z,210.67
2023-04-18T02:36:46.060Z,210.32
2023-04-18T02:37:46.096Z,206.85
2023-04-18T02:38:46.131Z,207.33
2023-04-18T02:39:46.155Z,206.46
2023-04-18T02:40:46.185Z,208.64
2023-04-18T02:41:46.241Z,209.85
2023-04-18T02:42:46.268Z,207.24
2023-04-18T02:43:46.321Z,209.93
2023-04-18T02:44:46.344Z,208.49
2023-04-18T02:45:46.458Z,209.94
2023-04-18T02:46:46.464Z,208.28
2023-04-18T02:47:54.740Z,207.47
2023-04-18T02:48:47.468Z,207.54
2023-04-18T02:49:46.463Z,207.83
2023-04-18T02:50:46.435Z,208.11
2023-04-18T02:51:46.430Z,208.32
2023-04-18T02:52:46.441Z,209.24
2023-04-18T02:53:46.433Z,209.78
2023-04-18T02:54:46.416Z,208.45
2023-04-18T02:55:46.407Z,206.63
2023-04-18T02:56:46.402Z,206.46
2023-04-18T02:57:46.411Z,209.19
2023-04-18T02:58:46.398Z,209.12
2023-04-18T02:59:46.466Z,210.28
2023-04-18T03:00:46.456Z,209.86
2023-04-18T03:01:46.601Z,212.07
2023-04-18T03:02:46.649Z,210.58
2023-04-18T03:03:46.600Z,210.87
2023-04-18T03:04:46.642Z,212.48
2023-04-18T03:05:46.685Z,211.06
2023-04-18T03:06:46.726Z,209.78
2023-04-18T03:07:46.751Z,210.06
2023-04-18T03:08:46.809Z,210.92
2023-04-18T03:09:46.829Z,210.76
2023-04-18T03:10:46.855Z,208.88
2023-04-18T03:11:46.907Z,210.08
2023-04-18T03:12:46.960Z,210.96
2023-04-18T03:13:46.988Z,212.53
2023-04-18T03:14:47.037Z,211.63
2023-04-18T03:15:47.076Z,210.14
2023-04-18T03:16:47.106Z,209.52
2023-04-18T03:17:47.169Z,210.19
2023-04-18T03:18:47.171Z,209.22
2023-04-18T03:19:47.229Z,209.48
2023-04-18T03:20:47.266Z,207.69
2023-04-18T03:21:47.314Z,210.58
2023-04-18T03:22:47.330Z,209.04
2023-04-18T03:23:47.375Z,211.67
2023-04-18T03:24:47.472Z,211.07
2023-04-18T03:25:47.451Z,209.26
2023-04-18T03:26:47.500Z,210.14
2023-04-18T03:27:47.527Z,209.14
2023-04-18T03:28:47.562Z,209.92
2023-04-18T03:29:47.619Z,210.98
2023-04-18T03:30:47.636Z,209.60
2023-04-18T03:31:47.727Z,207.43
2023-04-18T03:32:47.753Z,208.05
2023-04-18T03:33:47.758Z,207.61
2023-04-18T03:34:47.806Z,207.91
2023-04-18T03:35:47.854Z,208.78
2023-04-18T03:36:48.312Z,207.24
2023-04-18T03:37:47.944Z,209.11
2023-04-18T03:38:47.969Z,207.42
2023-04-18T03:39:48.030Z,205.83
2023-04-18T03:40:48.068Z,207.84
2023-04-18T03:41:48.138Z,208.30
2023-04-18T03:42:48.170Z,208.06
2023-04-18T03:43:48.191Z,207.96
2023-04-18T03:44:48.225Z,207.78
2023-04-18T03:45:48.308Z,209.73
2023-04-18T03:46:48.341Z,207.34
2023-04-18T03:47:48.441Z,207.42
2023-04-18T03:48:48.427Z,209.17
2023-04-18T03:49:48.470Z,210.30
2023-04-18T03:50:48.512Z,208.17
2023-04-18T03:51:48.574Z,207.48
2023-04-18T03:52:48.575Z,210.98
2023-04-18T03:53:48.617Z,210.31
2023-04-18T03:54:48.667Z,211.93
2023-04-18T03:55:48.715Z,207.98
2023-04-18T03:56:48.848Z,209.90
2023-04-18T03:57:48.811Z,209.91
2023-04-18T03:58:48.857Z,208.96
2023-04-18T03:59:48.879Z,207.92
2023-04-18T04:00:48.924Z,208.52
2023-04-18T04:01:49.033Z,208.25
2023-04-18T04:02:49.134Z,209.81
2023-04-18T04:03:49.197Z,208.77
2023-04-18T04:04:49.170Z,209.12
2023-04-18T04:05:49.132Z,208.08
2023-04-18T04:06:49.179Z,208.52
2023-04-18T04:07:49.231Z,209.77
2023-04-18T04:08:49.279Z,210.21
2023-04-18T04:09:49.316Z,210.09
2023-04-18T04:10:49.353Z,208.96
2023-04-18T04:11:49.395Z,208.85
2023-04-18T04:12:49.470Z,207.40
2023-04-18T04:13:49.485Z,208.03
2023-04-18T04:14:49.525Z,207.73
2023-04-18T04:15:49.567Z,210.42
2023-04-18T04:16:49.763Z,208.69
2023-04-18T04:17:49.828Z,209.08
2023-04-18T04:18:49.725Z,207.18
2023-04-18T04:19:49.767Z,210.75
2023-04-18T04:20:49.799Z,208.55
2023-04-18T04:21:49.834Z,209.18
2023-04-18T04:22:49.886Z,207.61
2023-04-18T04:23:49.933Z,206.11
2023-04-18T04:24:49.975Z,208.49
2023-04-18T04:25:50.024Z,209.39
2023-04-18T04:26:50.081Z,208.03
2023-04-18T04:27:50.138Z,210.10
2023-04-18T04:28:50.159Z,209.68
2023-04-18T04:29:50.230Z,208.41
2023-04-18T04:30:50.266Z,206.03
2023-04-18T04:31:50.324Z,208.69
2023-04-18T04:32:50.406Z,207.74
2023-04-18T04:33:50.400Z,207.28
2023-04-18T04:34:50.453Z,207.65
2023-04-18T04:35:50.485Z,208.35
2023-04-18T04:36:50.527Z,208.66
2023-04-18T04:37:50.575Z,210.00
2023-04-18T04:38:50.623Z,207.84
2023-04-18T04:39:50.675Z,208.29
2023-04-18T04:40:50.710Z,208.60
2023-04-18T04:41:50.745Z,208.11
2023-04-18T04:42:50.807Z,207.17
2023-04-18T04:43:50.863Z,208.22
2023-04-18T04:44:50.958Z,208.60
2023-04-18T04:45:50.995Z,208.78
2023-04-18T04:46:50.970Z,209.35
2023-04-18T04:47:51.061Z,210.79
2023-04-18T04:48:51.064Z,211.24
2023-04-18T04:49:51.152Z,212.07
2023-04-18T04:50:51.165Z,214.02
2023-04-18T04:51:51.190Z,213.76
2023-04-18T04:52:51.230Z,212.25
2023-04-18T04:53:51.279Z,213.28
2023-04-18T04:54:51.325Z,214.19
2023-04-18T04:55:51.371Z,213.83
2023-04-18T04:56:51.438Z,213.65
2023-04-18T04:57:51.491Z,213.43
2023-04-18T04:58:51.548Z,213.88
2023-04-18T04:59:51.574Z,209.22
2023-04-18T05:00:51.645Z,211.99
2023-04-18T05:01:51.721Z,213.53
2023-04-18T05:02:51.811Z,211.32
2023-04-18T05:03:51.912Z,214.06
2023-04-18T05:04:51.819Z,215.49
2023-04-18T05:05:51.864Z,214.46
2023-04-18T05:06:51.899Z,213.48
2023-04-18T05:07:51.932Z,215.25
2023-04-18T05:08:51.987Z,214.01
2023-04-18T05:09:52.028Z,214.80
2023-04-18T05:10:52.060Z,216.95
2023-04-18T05:11:52.122Z,215.64
2023-04-18T05:12:52.172Z,215.95
2023-04-18T05:13:52.226Z,215.34
2023-04-18T05:14:52.260Z,216.35
2023-04-18T05:15:52.303Z,215.96
2023-04-18T05:16:52.350Z,216.00
2023-04-18T05:17:52.480Z,216.01
2023-04-18T05:18:52.436Z,214.48
2023-04-18T05:19:52.489Z,215.14
2023-04-18T05:20:52.546Z,215.06
2023-04-18T05:21:52.568Z,216.14
2023-04-18T05:22:52.668Z,217.44
2023-04-18T05:23:52.666Z,216.57
2023-04-18T05:24:52.692Z,218.06
2023-04-18T05:25:52.736Z,217.06
2023-04-18T05:26:52.821Z,219.78
2023-04-18T05:27:52.857Z,222.33
2023-04-18T05:28:52.877Z,228.19
2023-04-18T05:29:52.942Z,228.68
2023-04-18T05:30:53.006Z,229.25
2023-04-18T05:31:53.012Z,230.27
2023-04-18T05:32:53.104Z,218.03
2023-04-18T05:33:53.121Z,220.01
2023-04-18T05:34:53.119Z,221.40
2023-04-18T05:35:53.168Z,221.14
2023-04-18T05:36:53.203Z,212.66
2023-04-18T05:37:53.240Z,213.90
2023-04-18T05:38:53.262Z,206.22
2023-04-18T05:39:53.308Z,206.28
2023-04-18T05:40:53.305Z,209.98
2023-04-18T05:41:53.300Z,220.93
2023-04-18T05:42:53.348Z,222.83
2023-04-18T05:44:04.245Z,227.30
2023-04-18T05:44:54.407Z,227.58
2023-04-18T05:45:54.292Z,229.11
2023-04-18T05:46:53.408Z,230.76
2023-04-18T05:47:53.565Z,231.93
2023-04-18T05:48:53.504Z,234.64
2023-04-18T05:49:53.573Z,238.20
2023-04-18T05:50:53.572Z,244.98
2023-04-18T05:51:53.546Z,250.00
2023-04-18T05:52:53.638Z,249.57
2023-04-18T05:53:53.678Z,250.00
2023-04-18T05:54:54.026Z,250.00
2023-04-18T05:55:53.792Z,249.28
2023-04-18T05:56:53.763Z,250.00
2023-04-18T05:57:53.774Z,249.85
2023-04-18T05:58:53.784Z,250.00
2023-04-18T05:59:53.788Z,250.00
2023-04-18T06:00:53.790Z,249.41
2023-04-18T06:01:53.882Z,249.84
2023-04-18T06:02:54.210Z,249.86
2023-04-18T06:03:54.207Z,249.95
2023-04-18T06:04:54.178Z,249.61
2023-04-18T06:05:54.142Z,250.09
2023-04-18T06:06:54.101Z,250.00
2023-04-18T06:07:54.161Z,248.73
2023-04-18T06:08:54.200Z,250.00
2023-04-18T06:09:54.228Z,249.44
2023-04-18T06:10:54.273Z,249.32
2023-04-18T06:11:54.288Z,247.85
2023-04-18T06:12:54.316Z,249.25
2023-04-18T06:13:54.486Z,250.00
2023-04-18T06:14:54.413Z,248.58
2023-04-18T06:15:54.475Z,248.47
2023-04-18T06:16:54.450Z,249.28
2023-04-18T06:17:54.469Z,249.58
2023-04-18T06:18:54.460Z,248.56
2023-04-18T06:19:54.506Z,247.49
2023-04-18T06:20:54.521Z,248.05
2023-04-18T06:21:54.529Z,248.12
2023-04-18T06:22:54.545Z,250.00
2023-04-18T06:23:54.575Z,248.86
2023-04-18T06:24:54.582Z,249.12
2023-04-18T06:25:54.602Z,247.95
2023-04-18T06:26:54.648Z,248.90
2023-04-18T06:27:54.641Z,250.00
2023-04-18T06:28:54.686Z,249.09
2023-04-18T06:29:54.690Z,248.62
2023-04-18T06:30:54.703Z,248.88
2023-04-18T06:31:54.769Z,238.27
2023-04-18T06:32:54.758Z,238.91
2023-04-18T06:33:54.764Z,218.49
2023-04-18T06:34:54.785Z,193.86
2023-04-18T06:35:54.813Z,185.53
2023-04-18T06:36:54.882Z,183.09
2023-04-18T06:37:54.943Z,190.04
2023-04-18T06:38:54.973Z,197.71
2023-04-18T06:39:55.057Z,200.81
2023-04-18T06:40:55.091Z,205.10
2023-04-18T06:41:55.177Z,209.69
2023-04-18T06:42:55.216Z,212.78
2023-04-18T06:44:03.612Z,216.04
2023-04-18T06:44:56.510Z,216.25
2023-04-18T06:45:55.256Z,217.15
2023-04-18T06:46:55.253Z,218.89
2023-04-18T06:47:55.280Z,220.88
2023-04-18T06:48:55.285Z,222.73
2023-04-18T06:49:55.223Z,223.67
2023-04-18T06:50:55.208Z,226.75
2023-04-18T06:51:55.202Z,230.08
2023-04-18T06:52:55.210Z,228.18
2023-04-18T06:53:55.201Z,229.09
2023-04-18T06:54:55.187Z,230.59
2023-04-18T06:55:55.194Z,227.42
2023-04-18T06:56:55.153Z,216.46
2023-04-18T06:57:55.166Z,205.58
2023-04-18T06:58:55.512Z,199.04
2023-04-18T06:59:55.176Z,195.92
2023-04-18T07:00:55.196Z,194.90
2023-04-18T07:01:55.236Z,197.23
2023-04-18T07:02:55.337Z,192.21
2023-04-18T07:03:55.605Z,193.26
2023-04-18T07:04:55.335Z,195.58
2023-04-18T07:05:55.366Z,193.39
2023-04-18T07:06:55.430Z,191.46
2023-04-18T07:07:55.554Z,187.38
2023-04-18T07:08:55.569Z,188.91
2023-04-18T07:09:55.558Z,187.42
2023-04-18T07:10:55.625Z,186.25
2023-04-18T07:11:55.726Z,178.69
2023-04-18T07:12:55.765Z,181.73
2023-04-18T07:13:55.801Z,217.66
2023-04-18T07:14:55.806Z,198.45
2023-04-18T07:15:55.842Z,197.67
2023-04-18T07:16:55.849Z,195.60
2023-04-18T07:17:55.937Z,198.20
2023-04-18T07:18:55.879Z,194.57
2023-04-18T07:19:55.885Z,187.62
2023-04-18T07:20:55.866Z,187.48
2023-04-18T07:21:55.865Z,187.13
2023-04-18T07:22:55.892Z,187.34
2023-04-18T07:23:55.908Z,191.65
2023-04-18T07:24:55.918Z,191.68
2023-04-18T07:25:55.938Z,193.17
2023-04-18T07:26:55.945Z,179.56
2023-04-18T07:27:55.936Z,161.12
2023-04-18T07:28:55.951Z,145.95
2023-04-18T07:29:55.986Z,129.04
2023-04-18T07:30:56.522Z,130.42
2023-04-18T07:31:56.098Z,139.72
2023-04-18T07:32:56.078Z,143.65
2023-04-18T07:33:56.513Z,148.95
2023-04-18T07:34:56.075Z,157.40
2023-04-18T07:35:56.514Z,161.69
2023-04-18T07:36:56.165Z,164.39
2023-04-18T07:37:56.208Z,167.70
2023-04-18T07:38:56.236Z,176.31
2023-04-18T07:39:56.248Z,189.47
2023-04-18T07:40:56.546Z,192.16
2023-04-18T07:41:56.302Z,198.83
2023-04-18T07:42:56.358Z,203.25
2023-04-18T07:43:56.540Z,207.01
2023-04-18T07:44:56.446Z,209.05
2023-04-18T07:45:56.534Z,211.47
2023-04-18T07:46:56.495Z,212.56
2023-04-18T07:47:56.538Z,213.60
2023-04-18T07:48:57.047Z,215.13
2023-04-18T07:49:56.558Z,214.99
2023-04-18T07:50:56.568Z,215.77
2023-04-18T07:51:56.602Z,216.94
2023-04-18T07:52:56.582Z,217.18
2023-04-18T07:53:56.617Z,217.38
2023-04-18T07:54:56.632Z,217.42
2023-04-18T07:55:56.665Z,218.12
2023-04-18T07:56:56.692Z,218.82
2023-04-18T07:57:56.760Z,219.45
2023-04-18T07:58:56.851Z,221.01
2023-04-18T07:59:56.870Z,221.56
2023-04-18T08:00:56.911Z,223.93
2023-04-18T08:01:56.972Z,224.58
2023-04-18T08:02:57.104Z,224.83
2023-04-18T08:03:57.142Z,225.46
2023-04-18T08:04:57.268Z,226.02
2023-04-18T08:05:57.158Z,226.66
2023-04-18T08:06:57.228Z,226.55
2023-04-18T08:07:57.269Z,227.77
2023-04-18T08:08:57.317Z,226.39
2023-04-18T08:09:57.386Z,227.13
2023-04-18T08:10:57.467Z,228.68
2023-04-18T08:11:57.527Z,229.52
2023-04-18T08:12:57.554Z,227.82
2023-04-18T08:13:57.608Z,227.73
2023-04-18T08:14:58.037Z,228.48
2023-04-18T08:15:57.795Z,228.31
2023-04-18T08:16:57.794Z,229.17
2023-04-18T08:17:57.881Z,227.02
2023-04-18T08:18:57.943Z,228.78
2023-04-18T08:19:58.027Z,228.12
2023-04-18T08:20:58.045Z,229.98
2023-04-18T08:21:58.077Z,228.08
2023-04-18T08:23:07.577Z,228.13
2023-04-18T08:23:59.101Z,228.15
2023-04-18T08:25:04.908Z,228.38
2023-04-18T08:25:59.085Z,228.23
2023-04-18T08:26:58.086Z,225.40
2023-04-18T08:27:58.122Z,227.86
2023-04-18T08:28:58.155Z,228.49
2023-04-18T08:29:58.543Z,227.42
2023-04-18T08:30:58.266Z,217.18
2023-04-18T08:31:58.363Z,210.69
2023-04-18T08:32:58.447Z,205.27
2023-04-18T08:33:58.428Z,194.94
2023-04-18T08:34:58.536Z,186.28
2023-04-18T08:35:58.551Z,176.06
2023-04-18T08:36:58.623Z,187.67
2023-04-18T08:37:58.668Z,194.29
2023-04-18T08:38:58.681Z,203.21
2023-04-18T08:39:58.716Z,205.40
2023-04-18T08:40:58.751Z,206.85
2023-04-18T08:41:58.783Z,209.27
2023-04-18T08:42:58.829Z,204.33
2023-04-18T08:43:58.855Z,199.38
2023-04-18T08:44:58.900Z,192.98
2023-04-18T08:45:58.942Z,188.59
2023-04-18T08:46:58.919Z,186.31
2023-04-18T08:47:58.967Z,183.54
2023-04-18T08:48:58.964Z,182.06
2023-04-18T08:49:58.965Z,180.73
2023-04-18T08:50:58.977Z,174.77
2023-04-18T08:51:59.101Z,175.82
2023-04-18T08:52:58.961Z,181.02
2023-04-18T08:53:58.945Z,180.74
2023-04-18T08:54:58.954Z,179.05
2023-04-18T08:55:59.051Z,177.45
2023-04-18T08:56:58.973Z,177.25
2023-04-18T08:57:58.976Z,176.62
2023-04-18T08:58:59.005Z,171.80
2023-04-18T08:59:58.997Z,170.15
2023-04-18T09:00:59.123Z,162.25
2023-04-18T09:01:59.287Z,159.54
2023-04-18T09:02:59.231Z,158.42
2023-04-18T09:03:59.160Z,153.46
2023-04-18T09:04:59.140Z,150.12
2023-04-18T09:05:59.547Z,154.64
2023-04-18T09:06:59.155Z,151.35
2023-04-18T09:07:59.165Z,144.99
2023-04-18T09:08:59.383Z,145.35
2023-04-18T09:09:59.205Z,142.57
2023-04-18T09:10:59.254Z,145.53
2023-04-18T09:11:59.228Z,136.58
2023-04-18T09:12:59.239Z,140.19
2023-04-18T09:13:59.324Z,134.32
2023-04-18T09:14:59.287Z,124.24
2023-04-18T09:15:59.575Z,124.52
2023-04-18T09:16:59.453Z,124.51
2023-04-18T09:17:59.394Z,127.59
2023-04-18T09:18:59.376Z,126.81
2023-04-18T09:19:59.444Z,128.43
2023-04-18T09:20:59.457Z,123.46
2023-04-18T09:21:59.428Z,122.24
2023-04-18T09:22:59.445Z,125.37
2023-04-18T09:23:59.458Z,142.17
2023-04-18T09:24:59.592Z,153.14
2023-04-18T09:25:59.532Z,161.44
2023-04-18T09:26:59.516Z,159.87
2023-04-18T09:27:59.487Z,167.16
2023-04-18T09:28:59.469Z,173.67
2023-04-18T09:29:59.579Z,173.80
2023-04-18T09:30:59.539Z,187.17
2023-04-18T09:31:59.522Z,224.92
2023-04-18T09:32:59.674Z,220.83
2023-04-18T09:33:59.577Z,215.89
2023-04-18T09:35:01.372Z,212.80
2023-04-18T09:36:00.079Z,217.32
2023-04-18T09:36:59.671Z,215.68
2023-04-18T09:37:59.614Z,213.00
2023-04-18T09:38:59.600Z,210.65
2023-04-18T09:39:59.698Z,207.14
2023-04-18T09:40:59.595Z,205.09
2023-04-18T09:41:59.576Z,189.50
2023-04-18T09:42:59.561Z,166.03
2023-04-18T09:43:59.554Z,149.30
2023-04-18T09:44:59.583Z,134.70
2023-04-18T09:45:59.591Z,105.12
2023-04-18T09:46:59.567Z,72.60
2023-04-18T09:47:59.605Z,125.65
2023-04-18T09:48:59.533Z,154.95
2023-04-18T09:49:59.540Z,155.61
2023-04-18T09:50:59.533Z,158.13
2023-04-18T09:51:59.573Z,161.37
2023-04-18T09:52:59.501Z,161.74
2023-04-18T09:53:59.511Z,165.43
2023-04-18T09:54:59.508Z,162.97
2023-04-18T09:55:59.539Z,154.09
2023-04-18T09:56:59.477Z,129.84
2023-04-18T09:57:59.478Z,136.43
2023-04-18T09:58:59.461Z,103.76
2023-04-18T09:59:59.462Z,108.62
2023-04-18T10:00:59.585Z,99.56
2023-04-18T10:01:59.640Z,94.51
2023-04-18T10:02:59.542Z,104.75
2023-04-18T10:03:59.601Z,97.61
2023-04-18T10:04:59.505Z,83.53
2023-04-18T10:05:59.434Z,76.02
2023-04-18T10:06:59.403Z,68.01
2023-04-18T10:07:59.472Z,68.38
2023-04-18T10:08:59.510Z,76.90
2023-04-18T10:09:59.560Z,102.54
2023-04-18T10:10:59.638Z,80.64
2023-04-18T10:11:59.740Z,83.48
2023-04-18T10:12:59.686Z,108.40
2023-04-18T10:13:59.716Z,81.59
2023-04-18T10:14:59.793Z,97.59
2023-04-18T10:15:59.849Z,81.45
2023-04-18T10:16:59.855Z,82.94
2023-04-18T10:18:05.082Z,58.31
2023-04-18T10:19:01.267Z,59.44
2023-04-18T10:19:59.887Z,56.97
2023-04-18T10:20:59.865Z,48.21
2023-04-18T10:22:00.091Z,58.30
2023-04-18T10:22:59.891Z,74.57
2023-04-18T10:23:59.864Z,35.74
2023-04-18T10:24:59.849Z,0.00
2023-04-18T10:25:59.850Z,0.00
2023-04-18T10:27:00.107Z,0.00
2023-04-18T10:27:59.848Z,0.00
2023-04-18T10:28:59.828Z,0.00
2023-04-18T10:29:59.807Z,0.00
2023-04-18T10:30:59.828Z,0.00
2023-04-18T10:32:00.043Z,0.00
2023-04-18T10:32:59.858Z,0.00
2023-04-18T10:34:05.417Z,0.00
2023-04-18T10:35:00.760Z,0.00
2023-04-18T10:36:00.119Z,0.00
2023-04-18T10:36:59.748Z,0.00
2023-04-18T10:37:59.758Z,0.00
2023-04-18T10:38:59.755Z,0.00
2023-04-18T10:39:59.733Z,0.00
2023-04-18T10:41:00.126Z,0.00
2023-04-18T10:41:59.725Z,0.00
2023-04-18T10:42:59.730Z,0.00
2023-04-18T10:43:59.732Z,0.00
2023-04-18T10:44:59.681Z,0.00
2023-04-18T10:45:59.680Z,11.42
2023-04-18T10:46:59.735Z,22.06
2023-04-18T10:47:59.711Z,40.35
2023-04-18T10:48:59.701Z,45.27
2023-04-18T10:49:59.730Z,46.34
2023-04-18T10:50:59.722Z,53.60
2023-04-18T10:51:59.728Z,63.55
2023-04-18T10:52:59.784Z,70.31
2023-04-18T10:53:59.857Z,77.74
2023-04-18T10:54:59.915Z,81.81
2023-04-18T10:55:59.982Z,86.04
2023-04-18T10:57:00.024Z,93.34
2023-04-18T10:58:00.064Z,96.32
2023-04-18T10:59:00.106Z,94.12
2023-04-18T11:00:00.182Z,98.99
2023-04-18T11:01:00.282Z,97.74
2023-04-18T11:02:00.256Z,105.28
2023-04-18T11:03:00.477Z,106.82
2023-04-18T11:04:00.465Z,107.82
2023-04-18T11:05:00.297Z,112.10
2023-04-18T11:06:00.310Z,114.87
2023-04-18T11:07:00.342Z,116.60
2023-04-18T11:08:00.369Z,121.49
2023-04-18T11:09:00.392Z,123.07
2023-04-18T11:10:00.446Z,126.93
2023-04-18T11:11:00.596Z,128.75
2023-04-18T11:12:00.613Z,130.96
2023-04-18T11:13:00.499Z,131.96
2023-04-18T11:14:00.498Z,137.24
2023-04-18T11:15:00.525Z,130.56
2023-04-18T11:16:00.646Z,129.83
2023-04-18T11:17:00.610Z,140.58
2023-04-18T11:18:00.656Z,140.89
2023-04-18T11:19:00.621Z,147.64
2023-04-18T11:20:00.675Z,151.25
2023-04-18T11:21:00.671Z,153.38
2023-04-18T11:22:01.112Z,153.82
2023-04-18T11:23:00.702Z,161.05
2023-04-18T11:24:00.726Z,164.68
2023-04-18T11:25:00.780Z,167.95
2023-04-18T11:26:00.769Z,173.30
2023-04-18T11:27:00.802Z,175.02
2023-04-18T11:28:00.875Z,176.08
2023-04-18T11:29:00.859Z,177.29
2023-04-18T11:30:00.879Z,180.12
2023-04-18T11:31:00.876Z,184.39
2023-04-18T11:32:00.908Z,187.30
2023-04-18T11:33:00.924Z,191.07
2023-04-18T11:34:00.929Z,194.01
2023-04-18T11:35:00.950Z,198.42
2023-04-18T11:36:00.977Z,198.76
2023-04-18T11:37:01.025Z,201.18
2023-04-18T11:38:01.025Z,202.89
2023-04-18T11:39:01.037Z,203.88
2023-04-18T11:40:01.029Z,205.00
2023-04-18T11:41:01.041Z,203.41
2023-04-18T11:42:01.080Z,203.86
2023-04-18T11:43:01.082Z,205.88
2023-04-18T11:44:01.181Z,201.68
2023-04-18T11:45:01.080Z,202.29
2023-04-18T11:46:01.237Z,205.37
2023-04-18T11:47:01.214Z,205.53
2023-04-18T11:48:01.274Z,205.49
2023-04-18T11:49:01.218Z,206.31
2023-04-18T11:50:01.249Z,207.87
2023-04-18T11:51:01.244Z,206.95
2023-04-18T11:52:01.302Z,203.71
2023-04-18T11:53:01.318Z,203.46
2023-04-18T11:54:01.350Z,206.74
2023-04-18T11:55:01.350Z,201.05
2023-04-18T11:56:01.369Z,198.60
2023-04-18T11:57:01.386Z,200.67
2023-04-18T11:58:01.409Z,204.35
2023-04-18T11:59:01.463Z,198.54
2023-04-18T12:00:01.376Z,202.63
2023-04-18T12:01:01.431Z,205.71
2023-04-18T12:02:12.562Z,196.80
2023-04-18T12:03:02.585Z,194.61
2023-04-18T12:04:01.695Z,187.14
2023-04-18T12:05:01.603Z,188.42
2023-04-18T12:06:01.531Z,192.54
2023-04-18T12:07:01.377Z,152.60
2023-04-18T12:08:01.392Z,128.71
2023-04-18T12:09:01.376Z,104.80
2023-04-18T12:10:01.358Z,103.05
2023-04-18T12:11:01.357Z,102.03
2023-04-18T12:12:01.350Z,102.47
2023-04-18T12:13:01.337Z,112.71
2023-04-18T12:14:02.996Z,113.15
2023-04-18T12:15:01.321Z,112.43
2023-04-18T12:16:01.359Z,114.16
2023-04-18T12:17:01.305Z,119.09
2023-04-18T12:18:01.433Z,123.40
2023-04-18T12:19:01.298Z,123.73
2023-04-18T12:20:01.282Z,124.27
2023-04-18T12:21:01.279Z,128.46
2023-04-18T12:22:01.651Z,150.27
2023-04-18T12:23:01.280Z,158.92
2023-04-18T12:24:01.262Z,166.80
2023-04-18T12:25:01.258Z,169.11
2023-04-18T12:26:01.275Z,170.76
2023-04-18T12:27:01.247Z,175.44
2023-04-18T12:28:01.255Z,178.64
2023-04-18T12:29:01.247Z,176.51
2023-04-18T12:30:01.217Z,179.09
2023-04-18T12:31:01.265Z,179.25
2023-04-18T12:32:01.308Z,178.67